createdAt,value
2017-12-14T00:00:55.767Z,1.50
2017-12-14T00:01:54.181Z,1.41
2017-12-14T00:04:48.178Z,1.78
2017-12-14T00:05:40.084Z,1.81
2017-12-14T00:08:27.964Z,1.64
2017-12-14T00:09:27.923Z,1.87
2017-12-14T00:12:11.324Z,1.98
2017-12-14T00:13:11.295Z,2.15
2017-12-14T00:15:54.679Z,2.22
2017-12-14T00:16:54.637Z,2.12
2017-12-14T00:19:38.108Z,3.15
2017-12-14T00:20:37.971Z,3.18
2017-12-14T00:23:22.361Z,3.42
2017-12-14T00:24:22.339Z,4.17
2017-12-14T00:27:05.707Z,5.14
2017-12-14T00:28:05.670Z,5.51
2017-12-14T00:30:51.023Z,6.56
2017-12-14T00:31:50.988Z,6.94
2017-12-14T00:32:50.991Z,6.70
2017-12-14T00:33:50.973Z,7.06
2017-12-14T00:34:51.599Z,6.06
2017-12-14T00:35:50.951Z,6.15
2017-12-14T00:36:50.934Z,5.80
2017-12-14T00:37:50.928Z,5.71
2017-12-14T00:38:50.920Z,5.28
2017-12-14T00:39:50.913Z,4.62
2017-12-14T00:40:50.902Z,4.55
2017-12-14T00:41:50.895Z,4.37
2017-12-14T00:42:51.599Z,4.12
2017-12-14T00:43:50.873Z,4.06
2017-12-14T00:44:50.862Z,4.02
2017-12-14T00:45:50.849Z,3.70
2017-12-14T00:46:50.852Z,3.35
2017-12-14T00:47:50.842Z,3.06
2017-12-14T00:48:50.822Z,3.04
2017-12-14T00:49:50.815Z,2.95
2017-12-14T00:50:50.803Z,2.58
2017-12-14T00:51:50.797Z,2.68
2017-12-14T00:52:50.786Z,2.60
2017-12-14T00:53:50.773Z,2.63
2017-12-14T00:54:50.775Z,2.74
2017-12-14T00:55:50.749Z,3.10
2017-12-14T00:56:50.741Z,3.04
2017-12-14T00:57:50.729Z,2.62
2017-12-14T00:58:51.604Z,2.54
2017-12-14T00:59:50.714Z,2.66
2017-12-14T01:00:50.702Z,2.46
2017-12-14T01:01:50.686Z,2.32
2017-12-14T01:02:50.682Z,2.28
2017-12-14T01:03:50.675Z,2.34
2017-12-14T01:04:50.664Z,2.59
2017-12-14T01:05:50.657Z,2.23
2017-12-14T01:06:50.647Z,2.18
2017-12-14T01:07:50.630Z,2.01
2017-12-14T01:08:53.610Z,2.19
2017-12-14T01:09:50.614Z,2.05
2017-12-14T01:10:51.127Z,2.31
2017-12-14T01:11:51.108Z,2.10
2017-12-14T01:12:50.579Z,2.03
2017-12-14T01:13:50.567Z,1.90
2017-12-14T01:14:50.559Z,1.77
2017-12-14T01:15:50.553Z,1.98
2017-12-14T01:16:50.540Z,2.23
2017-12-14T01:17:50.530Z,1.95
2017-12-14T01:18:50.522Z,1.94
2017-12-14T01:19:50.509Z,1.96
2017-12-14T01:20:50.498Z,1.88
2017-12-14T01:21:50.491Z,1.96
2017-12-14T01:22:51.142Z,2.05
2017-12-14T01:23:50.472Z,2.20
2017-12-14T01:24:51.115Z,2.07
2017-12-14T01:25:50.450Z,2.11
2017-12-14T01:26:50.434Z,2.10
2017-12-14T01:27:50.435Z,1.92
2017-12-14T01:28:50.422Z,2.02
2017-12-14T01:29:50.406Z,2.24
2017-12-14T01:30:50.396Z,2.01
2017-12-14T01:31:50.388Z,1.93
2017-12-14T01:32:50.379Z,2.13
2017-12-14T01:33:50.366Z,2.07
2017-12-14T01:34:50.379Z,2.14
2017-12-14T01:35:51.117Z,1.96
2017-12-14T01:36:50.342Z,1.96
2017-12-14T01:37:50.327Z,2.01
2017-12-14T01:38:50.316Z,1.90
2017-12-14T01:39:50.309Z,2.25
2017-12-14T01:40:50.299Z,2.32
2017-12-14T01:41:53.121Z,2.46
2017-12-14T01:42:50.277Z,2.19
2017-12-14T01:43:50.269Z,2.60
2017-12-14T01:44:50.257Z,2.58
2017-12-14T01:45:50.244Z,2.59
2017-12-14T01:46:50.254Z,2.67
2017-12-14T01:47:51.124Z,2.46
2017-12-14T01:48:50.226Z,2.55
2017-12-14T01:49:50.208Z,2.51
2017-12-14T01:50:50.193Z,2.46
2017-12-14T01:51:50.186Z,2.50
2017-12-14T01:52:51.121Z,2.50
2017-12-14T01:53:50.163Z,2.48
2017-12-14T01:54:50.154Z,2.62
2017-12-14T01:55:50.146Z,2.69
2017-12-14T01:56:50.136Z,2.80
2017-12-14T01:57:50.128Z,2.74
2017-12-14T01:58:50.134Z,2.42
2017-12-14T01:59:50.111Z,2.37
2017-12-14T02:00:50.101Z,2.60
2017-12-14T02:01:50.087Z,2.66
2017-12-14T02:02:50.080Z,2.50
2017-12-14T02:03:50.071Z,2.41
2017-12-14T02:04:50.636Z,2.39
2017-12-14T02:05:50.047Z,2.65
2017-12-14T02:06:50.033Z,2.46
2017-12-14T02:07:50.020Z,2.33
2017-12-14T02:08:50.015Z,2.39
2017-12-14T02:09:50.004Z,2.20
2017-12-14T02:10:50.010Z,2.16
2017-12-14T02:11:49.985Z,2.40
2017-12-14T02:12:49.973Z,2.34
2017-12-14T02:13:49.964Z,2.18
2017-12-14T02:14:49.958Z,2.39
2017-12-14T02:15:49.948Z,2.34
2017-12-14T02:16:49.948Z,2.50
2017-12-14T02:17:49.920Z,2.30
2017-12-14T02:18:49.920Z,2.08
2017-12-14T02:19:49.916Z,2.34
2017-12-14T02:20:49.898Z,2.58
2017-12-14T02:21:49.888Z,2.28
2017-12-14T02:22:49.879Z,2.53
2017-12-14T02:23:49.867Z,2.39
2017-12-14T02:24:49.857Z,2.18
2017-12-14T02:25:49.845Z,2.20
2017-12-14T02:26:49.833Z,2.26
2017-12-14T02:27:49.825Z,2.08
2017-12-14T02:28:49.816Z,1.98
2017-12-14T02:29:49.799Z,2.16
2017-12-14T02:30:49.810Z,2.06
2017-12-14T02:31:49.793Z,1.88
2017-12-14T02:32:50.636Z,1.98
2017-12-14T02:33:49.768Z,1.92
2017-12-14T02:34:49.762Z,1.83
2017-12-14T02:35:49.750Z,1.68
2017-12-14T02:36:49.737Z,1.69
2017-12-14T02:37:49.729Z,1.88
2017-12-14T02:38:50.647Z,1.58
2017-12-14T02:39:49.711Z,1.76
2017-12-14T02:40:49.701Z,1.86
2017-12-14T02:41:49.684Z,1.88
2017-12-14T02:42:49.677Z,1.65
2017-12-14T02:43:49.670Z,1.41
2017-12-14T02:44:49.657Z,1.69
2017-12-14T02:45:49.652Z,1.68
2017-12-14T02:46:49.649Z,1.73
2017-12-14T02:47:49.632Z,1.82
2017-12-14T02:48:50.141Z,1.70
2017-12-14T02:49:49.617Z,1.90
2017-12-14T02:50:49.601Z,1.86
2017-12-14T02:51:49.590Z,1.73
2017-12-14T02:52:49.584Z,1.83
2017-12-14T02:53:49.570Z,1.60
2017-12-14T02:54:49.560Z,1.48
2017-12-14T02:55:49.554Z,1.74
2017-12-14T02:56:49.547Z,1.76
2017-12-14T02:57:49.524Z,1.57
2017-12-14T02:58:49.524Z,1.75
2017-12-14T02:59:49.514Z,1.61
2017-12-14T03:00:49.504Z,2.04
2017-12-14T03:01:49.494Z,1.63
2017-12-14T03:02:49.480Z,1.76
2017-12-14T03:03:49.476Z,1.57
2017-12-14T03:04:49.462Z,1.71
2017-12-14T03:05:49.450Z,1.58
2017-12-14T03:06:49.440Z,1.59
2017-12-14T03:07:49.430Z,1.45
2017-12-14T03:08:49.423Z,1.67
2017-12-14T03:09:49.410Z,1.63
2017-12-14T03:10:49.408Z,1.53
2017-12-14T03:11:49.398Z,1.57
2017-12-14T03:12:49.383Z,1.34
2017-12-14T03:13:49.374Z,1.38
2017-12-14T03:14:49.366Z,1.48
2017-12-14T03:15:49.360Z,1.44
2017-12-14T03:16:49.356Z,1.31
2017-12-14T03:17:49.335Z,1.70
2017-12-14T03:18:49.325Z,1.12
2017-12-14T03:19:49.313Z,1.10
2017-12-14T03:20:49.303Z,1.08
2017-12-14T03:21:49.297Z,1.17
2017-12-14T03:22:49.283Z,1.19
2017-12-14T03:23:49.275Z,1.16
2017-12-14T03:24:49.267Z,1.06
2017-12-14T03:25:49.253Z,1.09
2017-12-14T03:26:49.247Z,0.85
2017-12-14T03:27:49.244Z,0.91
2017-12-14T03:28:49.247Z,0.83
2017-12-14T03:29:49.218Z,0.83
2017-12-14T03:30:49.207Z,1.08
2017-12-14T03:31:49.201Z,0.86
2017-12-14T03:32:49.192Z,0.88
2017-12-14T03:33:49.184Z,0.90
2017-12-14T03:34:49.165Z,1.06
2017-12-14T03:35:49.158Z,1.06
2017-12-14T03:36:49.149Z,0.95
2017-12-14T03:37:49.133Z,1.08
2017-12-14T03:38:49.128Z,1.03
2017-12-14T03:39:49.116Z,0.90
2017-12-14T03:40:49.106Z,0.96
2017-12-14T03:41:49.096Z,1.11
2017-12-14T03:42:49.093Z,0.98
2017-12-14T03:43:49.084Z,1.26
2017-12-14T03:44:49.069Z,1.18
2017-12-14T03:45:49.058Z,1.02
2017-12-14T03:46:49.052Z,1.03
2017-12-14T03:47:49.041Z,1.26
2017-12-14T03:48:49.031Z,1.15
2017-12-14T03:49:49.020Z,0.94
2017-12-14T03:50:49.006Z,0.96
2017-12-14T03:51:48.995Z,0.94
2017-12-14T03:52:49.656Z,0.80
2017-12-14T03:53:48.978Z,0.81
2017-12-14T03:54:48.967Z,0.88
2017-12-14T03:55:48.961Z,0.89
2017-12-14T03:56:48.950Z,0.96
2017-12-14T03:57:48.934Z,1.08
2017-12-14T03:58:48.940Z,1.01
2017-12-14T03:59:48.932Z,0.98
2017-12-14T04:00:49.661Z,0.96
2017-12-14T04:01:48.893Z,1.24
2017-12-14T04:02:48.887Z,1.05
2017-12-14T04:03:49.664Z,1.00
2017-12-14T04:04:48.863Z,0.90
2017-12-14T04:05:48.850Z,0.95
2017-12-14T04:06:48.842Z,0.96
2017-12-14T04:07:48.843Z,0.96
2017-12-14T04:08:48.826Z,0.84
2017-12-14T04:09:49.672Z,0.95
2017-12-14T04:10:48.795Z,0.91
2017-12-14T04:11:48.792Z,0.92
2017-12-14T04:12:48.781Z,1.06
2017-12-14T04:13:48.770Z,1.20
2017-12-14T04:14:48.764Z,1.05
2017-12-14T04:15:51.666Z,1.04
2017-12-14T04:16:48.736Z,0.96
2017-12-14T04:17:48.728Z,1.03
2017-12-14T04:18:48.717Z,1.08
2017-12-14T04:19:48.705Z,0.98
2017-12-14T04:20:48.700Z,1.02
2017-12-14T04:21:48.702Z,1.00
2017-12-14T04:22:48.668Z,1.17
2017-12-14T04:23:48.669Z,1.04
2017-12-14T04:24:48.654Z,1.07
2017-12-14T04:25:48.647Z,1.09
2017-12-14T04:26:48.636Z,1.17
2017-12-14T04:27:49.173Z,1.07
2017-12-14T04:28:48.613Z,1.29
2017-12-14T04:29:48.606Z,1.54
2017-12-14T04:30:48.590Z,1.41
2017-12-14T04:31:48.592Z,1.46
2017-12-14T04:32:48.570Z,1.23
2017-12-14T04:33:48.564Z,1.08
2017-12-14T04:34:48.551Z,1.06
2017-12-14T04:35:48.565Z,0.99
2017-12-14T04:36:48.540Z,1.14
2017-12-14T04:37:48.521Z,1.08
2017-12-14T04:38:48.506Z,1.23
2017-12-14T04:39:48.510Z,1.02
2017-12-14T04:40:48.495Z,1.15
2017-12-14T04:41:49.189Z,1.14
2017-12-14T04:42:48.471Z,1.03
2017-12-14T04:43:48.466Z,0.89
2017-12-14T04:44:48.455Z,1.06
2017-12-14T04:45:48.447Z,1.01
2017-12-14T04:46:48.430Z,0.84
2017-12-14T04:47:48.421Z,0.99
2017-12-14T04:48:48.410Z,0.88
2017-12-14T04:49:48.399Z,0.97
2017-12-14T04:50:48.388Z,0.77
2017-12-14T04:51:48.383Z,0.81
2017-12-14T04:52:48.369Z,0.87
2017-12-14T04:53:48.354Z,0.70
2017-12-14T04:54:48.349Z,0.70
2017-12-14T04:55:48.343Z,0.70
2017-12-14T04:56:48.334Z,0.70
2017-12-14T04:57:49.182Z,0.70
2017-12-14T04:58:48.307Z,0.76
2017-12-14T04:59:48.297Z,0.70
2017-12-14T05:00:48.287Z,0.66
2017-12-14T05:01:48.277Z,0.77
2017-12-14T05:02:48.269Z,0.72
2017-12-14T05:03:48.262Z,0.72
2017-12-14T05:04:48.250Z,0.70
2017-12-14T05:05:48.248Z,0.76
2017-12-14T05:06:48.226Z,0.66
2017-12-14T05:07:48.219Z,0.72
2017-12-14T05:08:49.186Z,0.86
2017-12-14T05:09:48.200Z,0.85
2017-12-14T05:10:48.184Z,0.91
2017-12-14T05:11:48.174Z,1.12
2017-12-14T05:12:48.161Z,1.11
2017-12-14T05:13:48.156Z,1.32
2017-12-14T05:14:48.139Z,1.38
2017-12-14T05:15:48.138Z,1.87
2017-12-14T05:16:48.124Z,1.76
2017-12-14T05:17:48.103Z,2.17
2017-12-14T05:18:48.104Z,2.19
2017-12-14T05:19:48.101Z,2.76
2017-12-14T05:20:48.691Z,2.72
2017-12-14T05:21:48.071Z,3.31
2017-12-14T05:22:48.062Z,2.69
2017-12-14T05:23:48.068Z,2.70
2017-12-14T05:24:48.042Z,2.95
2017-12-14T05:25:48.688Z,3.36
2017-12-14T05:26:48.018Z,4.13
2017-12-14T05:27:48.008Z,2.59
2017-12-14T05:28:47.999Z,2.41
2017-12-14T05:29:47.983Z,2.58
2017-12-14T05:30:47.974Z,2.49
2017-12-14T05:31:47.965Z,2.53
2017-12-14T05:32:47.966Z,2.55
2017-12-14T05:33:47.949Z,2.40
2017-12-14T05:34:47.937Z,2.48
2017-12-14T05:35:47.924Z,2.57
2017-12-14T05:35:59.925Z,0.09
2017-12-14T05:37:47.905Z,2.34
2017-12-14T05:38:48.704Z,2.12
2017-12-14T05:39:47.898Z,1.99
2017-12-14T05:40:47.869Z,2.11
2017-12-14T05:41:47.863Z,1.94
2017-12-14T05:42:47.855Z,2.08
2017-12-14T05:43:47.841Z,1.68
2017-12-14T05:44:47.834Z,1.84
2017-12-14T05:45:47.820Z,1.87
2017-12-14T05:46:47.804Z,1.62
2017-12-14T05:47:47.805Z,1.83
2017-12-14T05:48:47.789Z,1.87
2017-12-14T05:49:47.780Z,1.90
2017-12-14T05:50:47.773Z,1.95
2017-12-14T05:51:47.763Z,1.94
2017-12-14T05:52:47.753Z,1.87
2017-12-14T05:53:47.739Z,1.75
2017-12-14T05:54:47.736Z,1.69
2017-12-14T05:55:48.691Z,1.84
2017-12-14T05:56:47.712Z,1.82
2017-12-14T05:57:47.697Z,1.80
2017-12-14T05:58:47.688Z,2.00
2017-12-14T05:59:47.676Z,1.95
2017-12-14T06:00:47.671Z,2.10
2017-12-14T06:01:47.653Z,1.76
2017-12-14T06:02:47.640Z,2.07
2017-12-14T06:03:47.638Z,2.02
2017-12-14T06:04:47.629Z,1.96
2017-12-14T06:05:47.615Z,1.99
2017-12-14T06:06:47.608Z,1.90
2017-12-14T06:07:47.599Z,1.93
2017-12-14T06:08:47.593Z,1.65
2017-12-14T06:09:47.579Z,1.86
2017-12-14T06:10:47.564Z,1.76
2017-12-14T06:11:47.552Z,1.90
2017-12-14T06:12:47.551Z,1.98
2017-12-14T06:13:47.538Z,2.16
2017-12-14T06:14:47.524Z,1.86
2017-12-14T06:15:47.518Z,1.92
2017-12-14T06:16:47.505Z,1.88
2017-12-14T06:17:47.497Z,1.75
2017-12-14T06:18:47.488Z,1.65
2017-12-14T06:19:47.478Z,1.83
2017-12-14T06:20:47.470Z,1.98
2017-12-14T06:21:47.457Z,1.81
2017-12-14T06:22:47.441Z,1.72
2017-12-14T06:23:47.440Z,1.86
2017-12-14T06:24:47.431Z,1.91
2017-12-14T06:25:48.201Z,1.90
2017-12-14T06:26:47.409Z,2.10
2017-12-14T06:27:48.206Z,1.75
2017-12-14T06:28:47.397Z,2.26
2017-12-14T06:29:47.379Z,2.07
2017-12-14T06:30:47.367Z,2.01
2017-12-14T06:31:47.359Z,2.41
2017-12-14T06:32:47.365Z,1.93
2017-12-14T06:33:47.337Z,1.86
2017-12-14T06:34:47.327Z,1.87
2017-12-14T06:35:47.320Z,2.06
2017-12-14T06:36:47.309Z,2.06
2017-12-14T06:37:47.301Z,1.87
2017-12-14T06:38:47.291Z,1.66
2017-12-14T06:39:47.286Z,1.85
2017-12-14T06:40:47.280Z,1.86
2017-12-14T06:41:47.288Z,1.82
2017-12-14T06:42:47.258Z,2.03
2017-12-14T06:43:47.247Z,2.01
2017-12-14T06:44:47.247Z,1.98
2017-12-14T06:45:47.226Z,1.85
2017-12-14T06:46:47.204Z,2.18
2017-12-14T06:47:47.205Z,1.92
2017-12-14T06:48:47.194Z,2.20
2017-12-14T06:49:47.185Z,2.12
2017-12-14T06:50:49.714Z,2.24
2017-12-14T06:51:47.171Z,1.91
2017-12-14T06:52:47.156Z,1.86
2017-12-14T06:53:47.141Z,1.88
2017-12-14T06:54:47.138Z,2.13
2017-12-14T06:55:47.157Z,2.25
2017-12-14T06:56:47.128Z,2.14
2017-12-14T06:57:47.112Z,1.93
2017-12-14T06:58:47.102Z,2.18
2017-12-14T06:59:47.093Z,2.19
2017-12-14T07:00:47.086Z,2.17
2017-12-14T07:01:47.071Z,2.09
2017-12-14T07:02:47.059Z,2.06
2017-12-14T07:03:48.276Z,1.98
2017-12-14T07:04:47.046Z,2.06
2017-12-14T07:05:47.029Z,2.19
2017-12-14T07:06:47.022Z,2.30
2017-12-14T07:07:47.028Z,2.20
2017-12-14T07:08:47.007Z,2.12
2017-12-14T07:09:46.990Z,2.22
2017-12-14T07:10:46.974Z,2.07
2017-12-14T07:11:46.967Z,2.04
2017-12-14T07:12:46.951Z,1.92
2017-12-14T07:13:46.943Z,2.36
2017-12-14T07:14:46.932Z,2.07
2017-12-14T07:15:46.924Z,2.19
2017-12-14T07:16:46.906Z,2.02
2017-12-14T07:17:46.904Z,2.32
2017-12-14T07:18:46.896Z,2.26
2017-12-14T07:19:47.739Z,2.12
2017-12-14T07:20:47.723Z,2.04
2017-12-14T07:21:46.863Z,2.25
2017-12-14T07:22:46.854Z,2.34
2017-12-14T07:23:46.850Z,2.27
2017-12-14T07:24:46.834Z,2.06
2017-12-14T07:25:46.822Z,2.16
2017-12-14T07:26:46.815Z,2.24
2017-12-14T07:27:46.805Z,2.38
2017-12-14T07:28:46.785Z,2.08
2017-12-14T07:29:46.803Z,1.92
2017-12-14T07:30:46.774Z,2.07
2017-12-14T07:31:47.726Z,2.38
2017-12-14T07:32:46.747Z,1.96
2017-12-14T07:33:46.740Z,2.23
2017-12-14T07:34:46.728Z,2.38
2017-12-14T07:35:46.718Z,2.32
2017-12-14T07:36:46.710Z,2.24
2017-12-14T07:37:47.227Z,2.31
2017-12-14T07:38:46.688Z,2.35
2017-12-14T07:39:46.677Z,1.83
2017-12-14T07:40:46.668Z,2.40
2017-12-14T07:41:46.655Z,2.10
2017-12-14T07:42:46.651Z,2.14
2017-12-14T07:43:46.628Z,2.17
2017-12-14T07:44:46.625Z,2.52
2017-12-14T07:45:46.604Z,2.11
2017-12-14T07:46:46.600Z,2.04
2017-12-14T07:47:46.588Z,2.54
2017-12-14T07:48:47.228Z,2.02
2017-12-14T07:49:46.567Z,2.00
2017-12-14T07:50:46.558Z,2.51
2017-12-14T07:51:46.553Z,2.12
2017-12-14T07:52:46.537Z,2.41
2017-12-14T07:53:46.530Z,2.56
2017-12-14T07:54:46.532Z,2.34
2017-12-14T07:55:46.504Z,2.10
2017-12-14T07:56:46.497Z,2.18
2017-12-14T07:57:46.486Z,2.43
2017-12-14T07:58:46.472Z,2.36
2017-12-14T07:59:46.464Z,2.20
2017-12-14T08:00:46.458Z,2.44
2017-12-14T08:01:46.441Z,2.14
2017-12-14T08:02:46.439Z,2.26
2017-12-14T08:03:46.414Z,1.85
2017-12-14T08:04:46.414Z,1.85
2017-12-14T08:05:46.399Z,1.90
2017-12-14T08:06:46.393Z,1.90
2017-12-14T08:07:46.383Z,2.11
2017-12-14T08:08:46.376Z,1.98
2017-12-14T08:09:46.359Z,1.99
2017-12-14T08:10:46.352Z,2.15
2017-12-14T08:11:46.335Z,2.05
2017-12-14T08:12:46.324Z,2.30
2017-12-14T08:13:46.316Z,2.42
2017-12-14T08:14:46.310Z,2.52
2017-12-14T08:15:46.306Z,2.56
2017-12-14T08:16:46.291Z,2.00
2017-12-14T08:17:46.285Z,2.18
2017-12-14T08:18:46.260Z,2.22
2017-12-14T08:19:46.264Z,2.44
2017-12-14T08:20:46.251Z,2.50
2017-12-14T08:21:46.240Z,2.43
2017-12-14T08:22:46.230Z,2.53
2017-12-14T08:23:46.219Z,2.95
2017-12-14T08:24:46.219Z,3.14
2017-12-14T08:25:46.200Z,3.42
2017-12-14T08:26:46.183Z,2.87
2017-12-14T08:27:46.754Z,2.46
2017-12-14T08:28:46.168Z,2.53
2017-12-14T08:29:46.154Z,2.86
2017-12-14T08:30:46.151Z,3.47
2017-12-14T08:31:46.139Z,3.94
2017-12-14T08:32:46.138Z,3.87
2017-12-14T08:33:46.121Z,3.66
2017-12-14T08:34:46.113Z,3.38
2017-12-14T08:35:46.103Z,3.50
2017-12-14T08:36:46.094Z,4.08
2017-12-14T08:37:46.082Z,3.54
2017-12-14T08:38:46.068Z,3.14
2017-12-14T08:39:46.064Z,2.80
2017-12-14T08:40:46.050Z,2.78
2017-12-14T08:41:46.037Z,3.43
2017-12-14T08:42:46.030Z,3.28
2017-12-14T08:43:46.025Z,2.72
2017-12-14T08:44:46.015Z,3.12
2017-12-14T08:45:46.000Z,2.69
2017-12-14T08:46:46.007Z,2.52
2017-12-14T08:47:45.985Z,2.65
2017-12-14T08:48:45.979Z,2.64
2017-12-14T08:49:45.983Z,2.89
2017-12-14T08:50:45.961Z,3.02
2017-12-14T08:51:45.947Z,2.60
2017-12-14T08:52:45.937Z,2.48
2017-12-14T08:53:45.920Z,2.62
2017-12-14T08:54:45.913Z,2.90
2017-12-14T08:55:45.909Z,2.99
2017-12-14T08:56:45.897Z,3.28
2017-12-14T08:57:45.887Z,3.11
2017-12-14T08:58:45.874Z,2.88
2017-12-14T08:59:45.870Z,3.00
2017-12-14T09:00:45.859Z,3.18
2017-12-14T09:01:45.852Z,2.78
2017-12-14T09:02:45.842Z,3.01
2017-12-14T09:03:45.838Z,2.82
2017-12-14T09:04:45.823Z,2.86
2017-12-14T09:05:45.812Z,2.72
2017-12-14T09:06:46.755Z,2.25
2017-12-14T09:07:46.757Z,2.34
2017-12-14T09:08:45.789Z,2.57
2017-12-14T09:09:45.775Z,2.43
2017-12-14T09:10:45.767Z,3.04
2017-12-14T09:11:45.754Z,2.73
2017-12-14T09:12:46.254Z,2.78
2017-12-14T09:13:45.737Z,2.89
2017-12-14T09:14:45.781Z,2.82
2017-12-14T09:15:46.257Z,2.53
2017-12-14T09:16:54.359Z,2.58
2017-12-14T09:19:29.629Z,3.06
2017-12-14T09:20:29.065Z,2.59
2017-12-14T09:23:13.446Z,2.10
2017-12-14T09:24:13.405Z,2.32
2017-12-14T09:26:56.783Z,2.15
2017-12-14T09:27:56.752Z,2.08
2017-12-14T09:30:40.675Z,2.28
2017-12-14T09:31:40.098Z,1.99
2017-12-14T09:34:24.464Z,1.99
2017-12-14T09:35:24.441Z,1.80
2017-12-14T09:38:09.362Z,2.44
2017-12-14T09:39:08.781Z,2.00
2017-12-14T09:41:53.166Z,2.12
2017-12-14T09:42:53.122Z,2.13
2017-12-14T09:45:36.510Z,1.81
2017-12-14T09:46:36.478Z,1.62
2017-12-14T09:49:20.866Z,1.72
2017-12-14T09:50:20.838Z,1.69
2017-12-14T09:53:05.204Z,1.44
2017-12-14T09:54:05.172Z,1.18
2017-12-14T09:55:05.160Z,1.32
2017-12-14T09:56:05.150Z,1.56
2017-12-14T09:57:05.143Z,1.56
2017-12-14T09:58:05.136Z,1.26
2017-12-14T09:59:05.125Z,1.38
2017-12-14T10:00:06.750Z,1.52
2017-12-14T10:01:05.111Z,1.40
2017-12-14T10:02:05.144Z,1.46
2017-12-14T10:03:05.095Z,1.35
2017-12-14T10:04:05.083Z,1.65
2017-12-14T10:05:05.077Z,1.42
2017-12-14T10:06:05.070Z,1.65
2017-12-14T10:07:05.054Z,1.44
2017-12-14T10:08:05.051Z,1.02
2017-12-14T10:09:05.048Z,1.16
2017-12-14T10:10:05.032Z,1.26
2017-12-14T10:11:05.026Z,1.28
2017-12-14T10:12:05.012Z,1.14
2017-12-14T10:13:06.758Z,1.22
2017-12-14T10:14:05.001Z,1.02
2017-12-14T10:15:04.993Z,1.19
2017-12-14T10:16:04.987Z,1.12
2017-12-14T10:17:06.756Z,1.07
2017-12-14T10:18:04.963Z,0.92
2017-12-14T10:19:06.757Z,1.00
2017-12-14T10:20:04.945Z,1.02
2017-12-14T10:21:06.757Z,1.01
2017-12-14T10:22:04.930Z,0.98
2017-12-14T10:23:04.919Z,0.92
2017-12-14T10:24:04.911Z,0.86
2017-12-14T10:25:04.909Z,0.89
2017-12-14T10:26:04.902Z,1.10
2017-12-14T10:27:04.890Z,0.94
2017-12-14T10:28:04.881Z,0.84
2017-12-14T10:29:04.879Z,0.88
2017-12-14T10:30:04.866Z,0.90
2017-12-14T10:31:04.857Z,0.84
2017-12-14T10:32:04.849Z,1.02
2017-12-14T10:33:04.837Z,0.90
2017-12-14T10:34:04.830Z,0.91
2017-12-14T10:35:06.757Z,0.93
2017-12-14T10:36:06.764Z,0.90
2017-12-14T10:37:04.802Z,1.05
2017-12-14T10:38:06.764Z,0.97
2017-12-14T10:39:06.766Z,0.86
2017-12-14T10:39:19.103Z,0.04
2017-12-14T10:41:04.771Z,1.08
2017-12-14T10:42:06.271Z,1.25
2017-12-14T10:43:04.755Z,1.08
2017-12-14T10:44:04.754Z,1.07
2017-12-14T10:45:04.737Z,0.90
2017-12-14T10:46:06.267Z,0.92
2017-12-14T10:47:06.268Z,1.05
2017-12-14T10:48:04.735Z,1.08
2017-12-14T10:49:04.703Z,1.42
2017-12-14T10:50:04.692Z,1.46
2017-12-14T10:51:04.687Z,1.37
2017-12-14T10:52:06.267Z,1.37
2017-12-14T10:53:06.268Z,1.28
2017-12-14T10:54:04.659Z,1.22
2017-12-14T10:57:26.541Z,1.34
2017-12-14T10:58:17.648Z,1.42
2017-12-14T11:01:13.591Z,1.30
2017-12-14T11:02:04.097Z,1.36
2017-12-14T11:04:56.091Z,1.53
2017-12-14T11:05:48.413Z,1.44
2017-12-14T11:08:32.791Z,1.40
2017-12-14T11:09:32.758Z,1.30
2017-12-14T11:10:32.766Z,1.34
2017-12-14T11:11:32.740Z,1.41
2017-12-14T11:12:32.730Z,1.44
2017-12-14T11:13:41.369Z,1.37
2017-12-14T11:16:17.106Z,1.30
2017-12-14T11:17:17.073Z,1.58
2017-12-14T11:20:00.453Z,1.43
2017-12-14T11:21:00.417Z,1.39
2017-12-14T11:23:44.794Z,1.40
2017-12-14T11:24:44.758Z,1.30
2017-12-14T11:27:28.143Z,1.26
2017-12-14T11:28:28.106Z,1.48
2017-12-14T11:31:12.506Z,1.25
2017-12-14T11:32:12.460Z,1.46
2017-12-14T11:34:55.842Z,1.28
2017-12-14T11:35:55.818Z,1.39
2017-12-14T11:38:40.187Z,1.49
2017-12-14T11:39:40.158Z,1.90
2017-12-14T11:40:40.152Z,1.35
2017-12-14T11:41:40.149Z,1.17
2017-12-14T11:42:40.137Z,1.20
2017-12-14T11:43:40.123Z,1.33
2017-12-14T11:44:40.118Z,1.33
2017-12-14T11:45:40.110Z,1.64
2017-12-14T11:46:40.106Z,1.65
2017-12-14T11:47:40.087Z,1.41
2017-12-14T11:48:40.078Z,1.45
2017-12-14T11:49:40.073Z,1.64
2017-12-14T11:50:40.066Z,1.52
2017-12-14T11:51:40.057Z,1.46
2017-12-14T11:52:40.046Z,1.56
2017-12-14T11:53:40.042Z,1.69
2017-12-14T11:54:40.052Z,1.78
2017-12-14T11:55:40.027Z,1.48
2017-12-14T11:56:40.017Z,1.74
2017-12-14T11:57:40.008Z,1.85
2017-12-14T11:58:39.999Z,2.01
2017-12-14T11:59:39.993Z,1.98
2017-12-14T12:00:39.989Z,2.02
2017-12-14T12:01:39.980Z,1.80
2017-12-14T12:02:39.973Z,1.93
2017-12-14T12:03:39.960Z,1.78
2017-12-14T12:04:39.949Z,1.90
2017-12-14T12:05:39.940Z,2.14
2017-12-14T12:06:39.935Z,2.00
2017-12-14T12:07:39.936Z,1.97
2017-12-14T12:08:39.918Z,2.45
2017-12-14T12:09:39.905Z,2.42
2017-12-14T12:10:39.896Z,2.24
2017-12-14T12:11:39.896Z,1.88
2017-12-14T12:12:39.887Z,1.81
2017-12-14T12:13:39.880Z,1.82
2017-12-14T12:14:39.877Z,1.72
2017-12-14T12:15:39.861Z,2.10
2017-12-14T12:16:39.854Z,1.82
2017-12-14T12:17:39.846Z,1.74
2017-12-14T12:18:39.840Z,1.82
2017-12-14T12:19:39.826Z,1.79
2017-12-14T12:20:39.817Z,1.74
2017-12-14T12:21:40.752Z,1.66
2017-12-14T12:22:39.802Z,1.80
2017-12-14T12:23:39.793Z,1.64
2017-12-14T12:24:39.841Z,1.31
2017-12-14T12:25:39.777Z,1.41
2017-12-14T12:26:39.769Z,1.50
2017-12-14T12:27:40.754Z,1.54
2017-12-14T12:28:39.757Z,1.39
2017-12-14T12:29:39.750Z,1.51
2017-12-14T12:30:39.739Z,1.40
2017-12-14T12:31:39.733Z,1.48
2017-12-14T12:32:39.723Z,1.55
2017-12-14T12:33:39.713Z,1.44
2017-12-14T12:34:39.717Z,1.38
2017-12-14T12:35:39.694Z,1.52
2017-12-14T12:36:39.691Z,1.48
2017-12-14T12:37:39.676Z,1.56
2017-12-14T12:38:39.665Z,1.48
2017-12-14T12:39:39.665Z,1.30
2017-12-14T12:40:40.267Z,1.40
2017-12-14T12:41:39.660Z,1.40
2017-12-14T12:42:39.638Z,1.40
2017-12-14T12:43:39.625Z,1.33
2017-12-14T12:44:39.616Z,1.34
2017-12-14T12:45:39.610Z,1.58
2017-12-14T12:46:39.603Z,1.50
2017-12-14T12:47:42.269Z,1.31
2017-12-14T12:48:39.587Z,1.31
2017-12-14T12:49:39.574Z,1.22
2017-12-14T12:50:39.572Z,1.30
2017-12-14T12:51:39.556Z,1.34
2017-12-14T12:52:39.548Z,1.22
2017-12-14T12:53:39.546Z,1.18
2017-12-14T12:54:39.542Z,1.13
2017-12-14T12:55:39.526Z,1.19
2017-12-14T12:56:39.515Z,1.14
2017-12-14T12:57:39.512Z,1.34
2017-12-14T12:58:39.512Z,1.34
2017-12-14T12:59:39.488Z,1.26
2017-12-14T13:00:39.483Z,1.24
2017-12-14T13:01:39.468Z,1.16
2017-12-14T13:02:39.465Z,1.22
2017-12-14T13:03:39.457Z,1.12
2017-12-14T13:04:39.450Z,1.26
2017-12-14T13:05:39.450Z,1.12
2017-12-14T13:06:39.430Z,1.27
2017-12-14T13:07:39.432Z,1.26
2017-12-14T13:08:39.414Z,1.30
2017-12-14T13:09:39.404Z,1.20
2017-12-14T13:10:39.420Z,1.47
2017-12-14T13:11:39.390Z,1.39
2017-12-14T13:12:39.381Z,1.62
2017-12-14T13:13:39.369Z,1.58
2017-12-14T13:14:39.363Z,1.62
2017-12-14T13:15:39.352Z,1.28
2017-12-14T13:16:39.351Z,1.26
2017-12-14T13:17:39.344Z,1.25
2017-12-14T13:18:39.326Z,1.34
2017-12-14T13:19:39.321Z,1.24
2017-12-14T13:20:39.316Z,1.12
2017-12-14T13:21:39.307Z,2.12
2017-12-14T13:22:39.294Z,2.22
2017-12-14T13:23:39.289Z,1.44
2017-12-14T13:24:39.280Z,1.65
2017-12-14T13:25:39.273Z,1.78
2017-12-14T13:26:39.262Z,1.26
2017-12-14T13:27:39.249Z,1.22
2017-12-14T13:28:39.243Z,1.68
2017-12-14T13:29:39.234Z,1.56
2017-12-14T13:30:39.227Z,3.24
2017-12-14T13:31:39.214Z,2.62
2017-12-14T13:32:39.204Z,1.20
2017-12-14T13:33:39.204Z,1.33
2017-12-14T13:34:39.191Z,1.36
2017-12-14T13:35:39.180Z,1.44
2017-12-14T13:36:39.169Z,1.81
2017-12-14T13:37:39.162Z,1.18
2017-12-14T13:38:39.158Z,1.02
2017-12-14T13:39:39.157Z,0.90
2017-12-14T13:40:39.149Z,1.27
2017-12-14T13:41:39.138Z,1.19
2017-12-14T13:42:39.122Z,1.30
2017-12-14T13:43:39.105Z,1.32
2017-12-14T13:44:39.103Z,0.90
2017-12-14T13:45:39.098Z,1.09
2017-12-14T13:46:39.094Z,1.07
2017-12-14T13:47:39.077Z,1.00
2017-12-14T13:48:39.068Z,1.03
2017-12-14T13:49:39.060Z,1.28
2017-12-14T13:50:39.056Z,1.01
2017-12-14T13:51:39.043Z,1.09
2017-12-14T13:52:39.043Z,1.03
2017-12-14T13:53:39.021Z,1.16
2017-12-14T13:54:39.062Z,1.08
2017-12-14T13:55:39.006Z,1.00
2017-12-14T13:56:38.999Z,1.02
2017-12-14T13:57:38.993Z,1.09
2017-12-14T13:58:38.980Z,0.99
2017-12-14T13:59:38.982Z,1.25
2017-12-14T14:00:38.959Z,1.77
2017-12-14T14:01:38.953Z,1.23
2017-12-14T14:02:38.942Z,1.22
2017-12-14T14:03:38.940Z,1.56
2017-12-14T14:04:38.932Z,1.72
2017-12-14T14:05:38.924Z,2.73
2017-12-14T14:06:38.906Z,3.23
2017-12-14T14:07:38.900Z,2.08
2017-12-14T14:08:38.891Z,1.44
2017-12-14T14:09:38.890Z,1.84